Time;durP1;ratioP1;P1;durP2;ratioP2;P2;SDS_P1;SDS_P2;PMS_P1;PMS_P2;Temp;Humidity;BMP_temperature;BMP_pressure;BME280_temperature;BME280_humidity;BME280_pressure;Samples;Min_cycle;Max_cycle;Signal;HPM_P1;HPM_P2
2023/01/28 00:00:33;;;;;;;;;34.75;32.75;;;;;8.19;100.00;102191.81;5090883;27;45365;-77
2023/01/28 00:02:58;;;;;;;;;36.00;32.75;;;;;8.23;100.00;102204.81;5099206;27;48498;-77
2023/01/28 00:05:24;;;;;;;;;30.75;28.50;;;;;8.16;100.00;102196.50;5101680;27;45202;-76
2023/01/28 00:07:50;;;;;;;;;29.75;28.50;;;;;8.16;100.00;102200.00;5088167;27;45270;-77
2023/01/28 00:10:15;;;;;;;;;32.00;28.00;;;;;8.17;100.00;102203.50;5101314;27;45367;-77
2023/01/28 00:12:41;;;;;;;;;33.00;30.00;;;;;8.17;100.00;102212.25;5099903;27;47399;-77
2023/01/28 00:15:07;;;;;;;;;33.33;29.67;;;;;8.16;100.00;102205.28;5101562;27;45349;-77
2023/01/28 00:17:32;;;;;;;;;29.67;28.00;;;;;8.15;100.00;102203.63;5100417;27;45342;-77
2023/01/28 00:19:58;;;;;;;;;29.00;26.67;;;;;8.14;100.00;102193.97;5101707;27;45313;-77
2023/01/28 00:22:23;;;;;;;;;24.75;23.25;;;;;8.18;100.00;102205.19;5100876;27;46320;-77
2023/01/28 00:24:48;;;;;;;;;25.67;22.33;;;;;8.19;100.00;102205.06;5101384;27;45314;-77
2023/01/28 00:27:14;;;;;;;;;28.67;28.67;;;;;8.13;100.00;102194.09;5100251;27;45629;-77
2023/01/28 00:29:39;;;;;;;;;29.00;26.33;;;;;8.15;100.00;102198.31;5101172;27;45551;-77
2023/01/28 00:32:05;;;;;;;;;36.75;34.50;;;;;8.10;100.00;102195.19;5101363;27;46569;-76
2023/01/28 00:34:30;;;;;;;;;35.00;31.75;;;;;8.10;100.00;102203.13;5101354;27;45325;-77
2023/01/28 00:36:58;;;;;;;;;33.25;28.75;;;;;8.07;100.00;102190.13;5099971;27;45498;-77
2023/01/28 00:39:26;;;;;;;;;33.67;26.67;;;;;8.07;100.00;102198.06;5099768;27;47484;-77
2023/01/28 00:41:52;;;;;;;;;33.00;32.75;;;;;8.07;100.00;102204.22;5100903;27;46330;-77
2023/01/28 00:44:19;;;;;;;;;31.67;28.33;;;;;8.05;100.00;102194.72;5101134;27;45353;-77
2023/01/28 00:46:44;;;;;;;;;31.33;24.67;;;;;8.19;100.00;102196.25;5101234;27;45700;-76
2023/01/28 00:49:10;;;;;;;;;22.75;16.75;;;;;8.26;100.00;102201.91;5099778;27;45378;-76
2023/01/28 00:51:36;;;;;;;;;25.00;23.00;;;;;7.95;100.00;102189.28;5099729;27;46960;-77
2023/01/28 00:54:01;;;;;;;;;28.33;24.67;;;;;7.99;100.00;102201.31;5101203;27;45180;-77
2023/01/28 00:56:27;;;;;;;;;31.67;30.33;;;;;8.02;100.00;102209.03;5101257;27;45368;-76
2023/01/28 00:58:53;;;;;;;;;28.67;27.00;;;;;8.01;100.00;102196.75;5096148;27;45430;-77
2023/01/28 01:01:23;;;;;;;;;28.50;26.50;;;;;7.98;100.00;102204.94;5096762;27;45393;-77
2023/01/28 01:03:56;;;;;;;;;23.00;23.00;;;;;7.99;100.00;102197.84;5099481;27;45924;-77
2023/01/28 01:06:23;;;;;;;;;31.25;27.50;;;;;7.96;100.00;102206.84;5100767;27;45446;-77
2023/01/28 01:08:49;;;;;;;;;23.50;19.25;;;;;8.25;100.00;102192.25;5100532;27;45399;-77
2023/01/28 01:11:15;;;;;;;;;21.25;19.00;;;;;8.23;100.00;102196.88;5100322;27;45468;-77
2023/01/28 01:13:41;;;;;;;;;27.33;25.00;;;;;8.25;100.00;102202.88;5100671;27;45303;-76
2023/01/28 01:16:10;;;;;;;;;30.00;26.67;;;;;8.19;100.00;102202.41;5100807;27;45262;-77
2023/01/28 01:18:40;;;;;;;;;26.67;20.00;;;;;8.27;100.00;102200.94;5100905;27;45410;-77
2023/01/28 01:21:19;;;;;;;;;25.00;21.00;;;;;8.23;100.00;102204.81;5081931;27;48304;-77
2023/01/28 01:23:45;;;;;;;;;27.50;26.75;;;;;8.18;100.00;102210.47;5100410;27;45305;-77
2023/01/28 01:26:11;;;;;;;;;27.00;23.33;;;;;8.15;100.00;102216.00;5100758;27;45232;-77
2023/01/28 01:28:37;;;;;;;;;26.00;23.00;;;;;8.14;100.00;102209.03;5098882;27;47298;-77
2023/01/28 01:31:05;;;;;;;;;27.00;23.67;;;;;8.19;100.00;102215.66;5100597;27;45310;-75
2023/01/28 01:33:31;;;;;;;;;28.00;24.00;;;;;8.18;100.00;102221.91;5099125;27;46116;-77
2023/01/28 01:35:58;;;;;;;;;21.00;21.00;;;;;8.23;100.00;102218.06;5100646;27;45293;-77
2023/01/28 01:38:24;;;;;;;;;24.33;23.00;;;;;8.25;100.00;102222.25;5100141;27;45515;-76
2023/01/28 01:40:49;;;;;;;;;27.00;22.00;;;;;8.21;100.00;102219.00;5100458;27;46775;-78
2023/01/28 01:43:19;;;;;;;;;26.67;23.33;;;;;8.23;100.00;102221.53;5098427;27;45344;-76
2023/01/28 01:45:49;;;;;;;;;25.67;23.00;;;;;8.30;100.00;102224.53;5100531;27;45253;-77
2023/01/28 01:48:31;;;;;;;;;23.33;19.33;;;;;8.30;100.00;102229.84;5086491;27;45295;-77
2023/01/28 01:51:07;;;;;;;;;22.33;21.33;;;;;8.33;100.00;102225.13;5100133;27;45365;-76
2023/01/28 01:53:36;;;;;;;;;22.67;20.33;;;;;8.34;100.00;102229.47;5099517;27;45417;-77
2023/01/28 01:56:06;;;;;;;;;23.00;19.00;;;;;8.36;100.00;102226.72;5095540;27;45340;-76
2023/01/28 01:58:35;;;;;;;;;26.00;21.00;;;;;8.29;100.00;102218.41;5086451;27;45471;-77
2023/01/28 02:01:02;;;;;;;;;27.25;24.25;;;;;8.25;100.00;102219.59;5098486;27;45377;-79
2023/01/28 02:03:35;;;;;;;;;25.67;24.00;;;;;8.24;100.00;102215.28;5095320;27;45395;-76
2023/01/28 02:06:02;;;;;;;;;15.33;14.33;;;;;8.23;100.00;102213.59;5093093;27;45388;-76
2023/01/28 02:08:27;;;;;;;;;22.50;22.00;;;;;8.23;100.00;102224.19;5087739;27;45485;-76
2023/01/28 02:11:02;;;;;;;;;25.00;20.50;;;;;8.00;100.00;102213.63;5099796;27;45383;-76
2023/01/28 02:13:35;;;;;;;;;21.33;18.67;;;;;7.89;100.00;102213.59;5099985;27;45411;-77
2023/01/28 02:16:02;;;;;;;;;22.67;22.00;;;;;7.80;100.00;102226.59;5099900;27;45293;-76
2023/01/28 02:18:27;;;;;;;;;22.33;21.67;;;;;7.76;100.00;102224.31;5099501;27;45382;-76
2023/01/28 02:21:05;;;;;;;;;23.67;22.33;;;;;7.77;100.00;102237.44;5099353;27;45886;-77
2023/01/28 02:23:38;;;;;;;;;15.67;13.33;;;;;7.75;100.00;102228.75;5099815;27;45389;-77
2023/01/28 02:26:38;;;;;;;;;32.00;25.33;;;;;7.73;100.00;102229.84;5099879;27;45329;-76
2023/01/28 02:29:21;;;;;;;;;29.00;26.33;;;;;7.79;100.00;102230.22;5099457;27;45458;-76
2023/01/28 02:31:55;;;;;;;;;20.33;18.67;;;;;7.83;100.00;102231.66;5095219;27;47119;-76
2023/01/28 02:34:35;;;;;;;;;26.00;24.33;;;;;7.88;100.00;102236.59;5099857;27;45349;-77
2023/01/28 02:37:16;;;;;;;;;33.67;29.67;;;;;7.85;100.00;102236.84;5099612;27;45327;-77
2023/01/28 02:39:58;;;;;;;;;22.33;20.33;;;;;7.82;100.00;102239.72;5099645;27;45291;-76
2023/01/28 02:42:30;;;;;;;;;24.67;23.00;;;;;7.82;100.00;102229.97;5099224;27;47335;-76
2023/01/28 02:44:56;;;;;;;;;26.67;25.67;;;;;7.87;100.00;102236.72;5093218;27;45389;-77
2023/01/28 02:50:13;;;;;;;;;23.00;22.00;;;;;7.81;100.00;102222.13;5097356;27;45351;-77
2023/01/28 02:56:00;;;;;;;;;29.50;27.50;;;;;7.74;100.00;102240.31;5092323;27;45250;-77
2023/01/28 02:58:36;;;;;;;;;28.67;26.67;;;;;7.70;100.00;102238.88;5099147;27;45385;-77
2023/01/28 03:01:23;;;;;;;;;29.25;24.00;;;;;7.68;100.00;102238.13;5099160;27;47572;-76
2023/01/28 03:04:07;;;;;;;;;24.67;22.33;;;;;7.58;100.00;102222.94;5088497;27;45530;-77
2023/01/28 03:06:40;;;;;;;;;33.00;26.33;;;;;7.65;100.00;102231.28;5099411;27;46224;-77
2023/01/28 03:09:21;;;;;;;;;24.33;23.33;;;;;7.66;100.00;102238.25;5098910;27;45366;-77
2023/01/28 03:37:28;;;;;;;;;33.25;27.00;;;;;7.65;100.00;102249.81;5101967;27;45230;-77
2023/01/28 03:39:56;;;;;;;;;27.75;26.25;;;;;7.63;100.00;102254.34;5101998;27;45295;-76
2023/01/28 03:42:22;;;;;;;;;35.00;32.00;;;;;7.59;100.00;102255.56;5100897;27;45408;-76
2023/01/28 03:44:51;;;;;;;;;22.75;21.25;;;;;7.64;100.00;102260.50;5100576;27;46031;-77
2023/01/28 03:47:34;;;;;;;;;40.33;31.00;;;;;7.64;100.00;102256.06;5102283;27;46457;-76
2023/01/28 03:50:00;;;;;;;;;31.67;27.00;;;;;7.67;100.00;102253.16;5100625;27;45301;-76
2023/01/28 03:52:29;;;;;;;;;26.50;26.00;;;;;7.65;100.00;102248.94;5102028;27;45472;-77
2023/01/28 03:54:55;;;;;;;;;24.33;21.00;;;;;7.66;100.00;102259.41;5097314;27;46461;-77
2023/01/28 03:57:23;;;;;;;;;27.25;25.50;;;;;7.64;100.00;102256.06;5092292;27;45265;-76
2023/01/28 03:59:51;;;;;;;;;27.75;23.50;;;;;7.65;100.00;102256.88;5101327;27;45313;-76
2023/01/28 04:02:18;;;;;;;;;32.75;28.50;;;;;7.66;100.00;102259.41;5101850;27;45254;-76
2023/01/28 04:04:44;;;;;;;;;33.25;27.50;;;;;7.70;100.00;102252.09;5101633;27;45312;-76
2023/01/28 04:07:10;;;;;;;;;31.75;28.25;;;;;7.74;100.00;102261.47;5102412;27;45316;-77
2023/01/28 04:09:36;;;;;;;;;23.00;21.25;;;;;7.73;100.00;102270.41;5101786;27;45464;-76
2023/01/28 04:12:03;;;;;;;;;29.00;26.00;;;;;7.69;100.00;102280.34;5101939;27;45365;-76
2023/01/28 04:14:29;;;;;;;;;30.75;23.00;;;;;7.72;100.00;102279.28;5101292;27;46008;-76
2023/01/28 04:16:55;;;;;;;;;26.00;24.33;;;;;7.72;100.00;102276.63;5101630;27;45383;-76
2023/01/28 04:19:20;;;;;;;;;31.50;26.75;;;;;7.70;100.00;102284.69;5101563;27;45400;-77
2023/01/28 04:21:48;;;;;;;;;28.25;25.25;;;;;7.64;100.00;102271.94;5100188;27;45264;-76
2023/01/28 04:24:13;;;;;;;;;28.00;22.75;;;;;7.64;100.00;102276.38;5101401;27;45551;-76
2023/01/28 04:26:39;;;;;;;;;33.50;29.75;;;;;7.68;100.00;102285.78;5101069;27;45379;-77
2023/01/28 04:29:05;;;;;;;;;32.25;28.75;;;;;7.65;100.00;102286.84;5096357;27;45392;-77
2023/01/28 04:31:31;;;;;;;;;28.25;26.75;;;;;7.56;100.00;102280.47;5092374;27;45291;-77
2023/01/28 04:33:56;;;;;;;;;28.50;22.75;;;;;7.58;100.00;102275.88;5101191;27;45795;-77
2023/01/28 04:36:22;;;;;;;;;29.75;25.75;;;;;7.68;100.00;102296.34;5101212;27;45389;-76
2023/01/28 04:38:48;;;;;;;;;30.25;27.50;;;;;7.61;100.00;102282.75;5101024;27;45318;-78
2023/01/28 04:41:13;;;;;;;;;26.33;25.00;;;;;7.66;100.00;102293.00;5099692;27;45466;-78
2023/01/28 04:43:39;;;;;;;;;31.25;27.50;;;;;7.63;100.00;102291.41;5099891;27;46281;-76
2023/01/28 04:46:04;;;;;;;;;29.25;25.25;;;;;7.61;100.00;102296.00;5101421;27;45318;-76
2023/01/28 04:48:30;;;;;;;;;28.25;22.50;;;;;7.62;100.00;102291.53;5100815;27;45237;-77
2023/01/28 04:50:56;;;;;;;;;27.25;24.00;;;;;7.67;100.00;102305.25;5101376;27;45354;-77
2023/01/28 04:53:21;;;;;;;;;26.25;22.50;;;;;7.65;100.00;102300.09;5100699;27;45215;-77
2023/01/28 04:55:47;;;;;;;;;30.25;26.50;;;;;7.72;100.00;102308.38;5100940;27;45303;-76
2023/01/28 04:58:13;;;;;;;;;24.50;21.50;;;;;7.71;100.00;102301.41;5101052;27;45165;-77
2023/01/28 05:00:38;;;;;;;;;27.25;21.75;;;;;7.68;100.00;102291.91;5101123;27;45557;-77
2023/01/28 05:03:03;;;;;;;;;28.50;24.50;;;;;7.75;100.00;102302.03;5100889;27;45298;-77
2023/01/28 05:05:28;;;;;;;;;31.00;25.25;;;;;7.74;100.00;102308.28;5100961;27;46117;-77
2023/01/28 05:07:55;;;;;;;;;27.25;26.75;;;;;7.71;100.00;102296.13;5101362;27;45271;-76
2023/01/28 05:10:22;;;;;;;;;25.67;25.00;;;;;7.68;100.00;102299.84;5096197;27;45347;-76
2023/01/28 05:12:48;;;;;;;;;26.33;25.00;;;;;7.69;100.00;102303.31;5093744;27;45258;-76
2023/01/28 05:15:18;;;;;;;;;30.00;29.00;;;;;7.69;100.00;102304.19;5091235;27;45342;-77
2023/01/28 05:17:43;;;;;;;;;33.25;25.75;;;;;7.71;100.00;102298.78;5100415;27;45349;-76
2023/01/28 05:20:11;;;;;;;;;27.75;26.00;;;;;7.73;100.00;102294.22;5100912;27;45374;-76
2023/01/28 05:22:37;;;;;;;;;22.50;20.50;;;;;7.70;100.00;102291.81;5099982;27;45586;-76
2023/01/28 05:25:03;;;;;;;;;34.67;29.67;;;;;7.67;100.00;102290.22;5100562;27;45369;-76
2023/01/28 05:27:29;;;;;;;;;29.33;25.67;;;;;7.94;100.00;102309.41;5100570;27;45401;-76
2023/01/28 05:29:55;;;;;;;;;30.75;26.75;;;;;7.76;100.00;102304.56;5095721;27;45330;-76
2023/01/28 05:32:20;;;;;;;;;27.67;24.67;;;;;7.76;100.00;102303.72;5098926;27;45369;-76
2023/01/28 05:34:46;;;;;;;;;26.33;23.67;;;;;7.83;100.00;102312.88;5100375;27;45382;-77
2023/01/28 05:37:11;;;;;;;;;31.75;28.50;;;;;7.80;100.00;102315.75;5100046;27;45316;-77
2023/01/28 05:39:36;;;;;;;;;25.67;23.00;;;;;7.77;100.00;102316.84;5100382;27;45463;-76
2023/01/28 05:42:02;;;;;;;;;28.00;26.67;;;;;7.75;100.00;102313.44;5100329;27;45448;-77
2023/01/28 05:44:27;;;;;;;;;28.00;27.33;;;;;7.77;100.00;102324.78;5100388;27;46563;-76
2023/01/28 05:46:52;;;;;;;;;26.00;24.00;;;;;7.74;100.00;102322.38;5099933;27;45276;-75
2023/01/28 05:49:18;;;;;;;;;25.25;23.25;;;;;7.72;100.00;102315.50;5100553;27;45438;-75
2023/01/28 05:51:43;;;;;;;;;32.67;26.67;;;;;7.66;100.00;102312.34;5099421;27;45507;-76
2023/01/28 05:54:08;;;;;;;;;27.33;23.00;;;;;7.70;100.00;102323.56;5100001;27;45246;-75
2023/01/28 05:56:35;;;;;;;;;27.67;25.67;;;;;7.73;100.00;102317.19;5100148;27;45219;-75
2023/01/28 05:59:01;;;;;;;;;23.00;22.00;;;;;7.73;100.00;102327.78;5095487;27;45415;-75
2023/01/28 06:01:26;;;;;;;;;28.33;26.67;;;;;7.73;100.00;102322.47;5097086;27;45353;-75
2023/01/28 06:03:52;;;;;;;;;35.25;29.50;;;;;7.72;100.00;102324.28;5098347;27;47450;-75
2023/01/28 06:06:17;;;;;;;;;26.33;25.67;;;;;7.72;100.00;102323.44;5100877;27;45361;-76
2023/01/28 06:08:42;;;;;;;;;32.25;27.75;;;;;7.65;100.00;102310.66;5100008;27;45505;-75
2023/01/28 06:11:08;;;;;;;;;31.50;26.00;;;;;7.77;100.00;102324.78;5098363;27;45500;-75
2023/01/28 06:13:33;;;;;;;;;29.00;25.25;;;;;7.72;100.00;102320.78;5098440;27;48359;-76
2023/01/28 06:15:59;;;;;;;;;32.75;27.75;;;;;7.67;100.00;102323.78;5099721;27;45318;-76
2023/01/28 06:18:24;;;;;;;;;24.75;22.00;;;;;7.61;100.00;102333.03;5095370;27;45301;-75
2023/01/28 06:20:49;;;;;;;;;29.50;26.00;;;;;7.53;100.00;102330.09;5094907;27;46403;-75
2023/01/28 06:23:15;;;;;;;;;32.50;28.75;;;;;7.50;100.00;102339.13;5099194;27;45449;-75
2023/01/28 06:25:40;;;;;;;;;34.50;28.50;;;;;7.51;100.00;102337.34;5098109;27;45318;-76
2023/01/28 06:28:06;;;;;;;;;30.00;24.50;;;;;7.42;100.00;102341.47;5095259;27;45385;-76
2023/01/28 06:30:31;;;;;;;;;27.25;24.25;;;;;7.40;100.00;102349.56;5095937;27;45383;-76
2023/01/28 06:32:56;;;;;;;;;30.00;27.00;;;;;7.36;100.00;102342.78;5099636;27;45233;-75
2023/01/28 06:35:22;;;;;;;;;35.50;29.00;;;;;7.40;100.00;102354.00;5099556;27;45334;-75
2023/01/28 06:37:48;;;;;;;;;18.25;17.00;;;;;7.39;100.00;102350.50;5094829;27;45472;-76
2023/01/28 06:40:13;;;;;;;;;29.25;26.75;;;;;7.42;100.00;102358.22;5082100;27;45294;-76
2023/01/28 06:42:38;;;;;;;;;27.75;22.00;;;;;7.38;100.00;102353.25;5099093;27;45991;-76
2023/01/28 06:45:04;;;;;;;;;27.00;25.50;;;;;7.37;100.00;102360.38;5099529;27;45331;-76
2023/01/28 06:47:29;;;;;;;;;32.25;25.75;;;;;7.39;100.00;102365.53;5089231;27;45546;-76
2023/01/28 06:49:55;;;;;;;;;34.00;30.75;;;;;7.36;100.00;102374.53;5088758;27;45470;-76
2023/01/28 06:52:20;;;;;;;;;31.00;29.25;;;;;7.38;100.00;102377.91;5086568;27;48177;-76
2023/01/28 06:54:45;;;;;;;;;29.25;27.50;;;;;7.38;100.00;102371.78;5099365;27;45436;-77
2023/01/28 06:57:11;;;;;;;;;29.75;27.25;;;;;7.38;100.00;102372.63;5099562;27;45582;-77
2023/01/28 06:59:36;;;;;;;;;34.00;30.33;;;;;7.38;100.00;102372.63;5096238;27;45481;-77
2023/01/28 07:02:01;;;;;;;;;28.00;25.00;;;;;7.42;100.00;102371.44;5097822;27;47073;-77
2023/01/28 07:04:27;;;;;;;;;30.50;27.50;;;;;7.40;100.00;102372.50;5097422;27;45473;-76
2023/01/28 07:06:52;;;;;;;;;28.75;24.75;;;;;7.48;100.00;102382.53;5103180;27;45449;-74
2023/01/28 07:09:17;;;;;;;;;30.25;26.25;;;;;7.51;100.00;102387.59;5102247;27;45333;-75
2023/01/28 07:11:42;;;;;;;;;35.75;31.00;;;;;7.50;100.00;102391.19;5097909;27;46998;-77
2023/01/28 07:14:08;;;;;;;;;34.50;30.75;;;;;7.47;100.00;102388.75;5096537;27;45382;-76
2023/01/28 07:16:33;;;;;;;;;32.25;31.25;;;;;7.43;100.00;102385.53;5102807;27;45365;-76
2023/01/28 07:18:58;;;;;;;;;28.25;20.75;;;;;7.43;100.00;102391.63;5100972;27;46392;-76
2023/01/28 07:21:24;;;;;;;;;28.75;24.00;;;;;7.45;100.00;102389.72;5102481;27;46068;-75
2023/01/28 07:23:49;;;;;;;;;34.33;27.33;;;;;7.43;100.00;102389.00;5102508;27;45289;-76
2023/01/28 07:26:15;;;;;;;;;30.67;24.67;;;;;7.48;100.00;102393.13;5102893;27;45409;-76
2023/01/28 07:28:40;;;;;;;;;29.33;21.33;;;;;7.38;100.00;102377.91;5100522;27;47150;-76
2023/01/28 07:31:06;;;;;;;;;32.00;28.50;;;;;7.47;100.00;102386.97;5102478;27;45960;-79
2023/01/28 07:33:31;;;;;;;;;35.25;31.50;;;;;7.48;100.00;102390.47;5102375;27;45474;-80
2023/01/28 07:35:56;;;;;;;;;31.00;27.00;;;;;7.51;100.00;102390.25;5093075;27;45575;-78
2023/01/28 07:38:22;;;;;;;;;39.00;31.00;;;;;7.55;100.00;102397.81;5097500;27;46322;-79
2023/01/28 07:40:47;;;;;;;;;32.50;25.75;;;;;7.57;100.00;102398.56;5101426;27;46090;-80
2023/01/28 07:43:13;;;;;;;;;31.25;29.00;;;;;7.45;100.00;102381.78;5102140;27;45344;-80
2023/01/28 07:45:38;;;;;;;;;28.00;27.50;;;;;7.51;100.00;102403.47;5097809;27;45364;-80
2023/01/28 07:48:06;;;;;;;;;32.25;30.00;;;;;7.54;100.00;102408.56;5102041;27;45367;-81
2023/01/28 07:50:34;;;;;;;;;26.75;25.75;;;;;7.56;100.00;102398.69;5100608;27;47853;-81
2023/01/28 07:53:02;;;;;;;;;30.25;29.75;;;;;7.61;100.00;102406.28;5099756;27;45806;-81
2023/01/28 07:55:28;;;;;;;;;32.25;28.50;;;;;7.65;100.00;102405.94;5101876;27;45350;-82
2023/01/28 07:57:59;;;;;;;;;35.25;30.00;;;;;7.65;100.00;102399.78;5098243;27;47204;-81
2023/01/28 08:00:26;;;;;;;;;33.25;26.25;;;;;7.68;100.00;102411.00;5101977;27;45448;-81
2023/01/28 08:02:57;;;;;;;;;27.75;25.50;;;;;7.66;100.00;102404.97;5097355;27;45742;-80
2023/01/28 08:05:23;;;;;;;;;28.50;27.25;;;;;7.66;100.00;102410.28;5089917;27;45373;-80
2023/01/28 08:07:49;;;;;;;;;30.00;26.75;;;;;7.69;100.00;102417.97;5107720;27;45403;-80
2023/01/28 08:10:16;;;;;;;;;30.25;28.75;;;;;7.67;100.00;102411.94;5101489;27;45314;-80
2023/01/28 08:12:55;;;;;;;;;31.00;28.25;;;;;7.76;100.00;102415.75;5101688;27;45341;-79
2023/01/28 08:15:21;;;;;;;;;27.75;25.00;;;;;7.82;100.00;102422.38;5101274;27;45619;-80
2023/01/28 08:17:46;;;;;;;;;31.50;26.50;;;;;7.78;100.00;102428.88;5101816;27;45236;-79
2023/01/28 08:20:12;;;;;;;;;30.50;29.50;;;;;8.11;100.00;102429.91;5101124;27;45560;-79
2023/01/28 08:22:37;;;;;;;;;28.25;27.00;;;;;8.02;100.00;102418.22;5101236;27;45538;-79
2023/01/28 08:25:03;;;;;;;;;27.50;25.50;;;;;7.85;100.00;102416.84;5101441;27;45421;-79
2023/01/28 08:27:28;;;;;;;;;25.75;22.00;;;;;7.84;100.00;102420.44;5096981;27;45917;-80
2023/01/28 08:29:54;;;;;;;;;30.50;25.00;;;;;7.96;100.00;102422.19;5098639;27;45503;-80
2023/01/28 08:32:19;;;;;;;;;32.50;29.00;;;;;7.82;100.00;102419.72;5101167;27;45277;-79
2023/01/28 08:34:45;;;;;;;;;26.50;25.25;;;;;8.03;100.00;102427.88;5101389;27;45433;-80
2023/01/28 08:37:10;;;;;;;;;29.50;27.00;;;;;7.91;100.00;102432.28;5101246;27;45271;-79
2023/01/28 08:39:35;;;;;;;;;30.67;21.33;;;;;7.91;100.00;102423.50;5101127;27;45449;-79
2023/01/28 08:42:01;;;;;;;;;29.50;26.00;;;;;7.89;100.00;102428.91;5096328;27;45362;-79
2023/01/28 08:44:26;;;;;;;;;34.00;28.00;;;;;7.94;100.00;102434.69;5099027;27;45388;-80
2023/01/28 08:46:51;;;;;;;;;30.00;26.33;;;;;7.95;100.00;102438.19;5099975;27;45384;-79
2023/01/28 08:49:17;;;;;;;;;35.50;27.75;;;;;7.93;100.00;102430.34;5100467;27;46022;-80
2023/01/28 08:51:42;;;;;;;;;36.75;30.00;;;;;8.04;100.00;102449.88;5100925;27;45306;-81
2023/01/28 08:54:07;;;;;;;;;33.75;27.00;;;;;8.08;100.00;102453.97;5100492;27;45421;-81
2023/01/28 08:56:32;;;;;;;;;34.25;29.50;;;;;8.14;100.00;102452.69;5099207;27;46475;-80
2023/01/28 08:58:58;;;;;;;;;31.25;28.00;;;;;8.18;100.00;102451.50;5096241;27;46983;-80
2023/01/28 09:01:25;;;;;;;;;31.00;28.75;;;;;8.19;100.00;102442.59;5097568;27;45342;-79
2023/01/28 09:03:50;;;;;;;;;25.67;23.67;;;;;8.24;100.00;102458.97;5099692;27;46506;-80
2023/01/28 09:06:15;;;;;;;;;27.25;27.00;;;;;8.26;100.00;102458.88;5093076;27;45438;-80
2023/01/28 09:08:40;;;;;;;;;29.50;27.50;;;;;8.23;100.00;102451.97;5093579;27;47217;-80
2023/01/28 09:11:06;;;;;;;;;26.75;24.75;;;;;8.28;100.00;102455.13;5098304;27;45532;-80
2023/01/28 09:13:31;;;;;;;;;28.50;25.00;;;;;8.31;100.00;102460.19;5099437;27;45294;-80
2023/01/28 09:15:56;;;;;;;;;31.25;28.00;;;;;8.27;100.00;102461.41;5099835;27;45797;-79
2023/01/28 09:18:22;;;;;;;;;29.75;26.00;;;;;8.29;100.00;102470.06;5099512;27;45602;-78
2023/01/28 09:20:47;;;;;;;;;36.50;32.25;;;;;8.25;100.00;102458.00;5099286;27;45502;-81
2023/01/28 09:23:13;;;;;;;;;34.50;31.75;;;;;8.30;100.00;102465.63;5094477;27;45939;-83
2023/01/28 09:25:38;;;;;;;;;35.50;29.50;;;;;8.26;100.00;102467.63;5090670;27;45364;-82
2023/01/28 09:28:04;;;;;;;;;32.25;29.50;;;;;8.27;100.00;102468.50;5095883;27;45560;-81
2023/01/28 09:30:30;;;;;;;;;28.50;26.75;;;;;8.30;100.00;102468.25;5087482;27;45500;-81
2023/01/28 09:32:57;;;;;;;;;23.00;20.67;;;;;8.32;100.00;102474.31;5097564;27;45344;-82
2023/01/28 09:35:22;;;;;;;;;29.50;22.75;;;;;8.21;100.00;102462.69;5099068;27;46144;-81
2023/01/28 09:37:48;;;;;;;;;30.67;28.67;;;;;8.22;100.00;102474.13;5099187;27;45371;-81
2023/01/28 09:40:19;;;;;;;;;32.75;29.75;;;;;8.27;100.00;102485.25;5099916;27;45371;-81
2023/01/28 09:43:13;;;;;;;;;37.00;31.75;;;;;8.27;99.34;102481.75;5098844;27;45317;-80
2023/01/28 09:45:59;;;;;;;;;38.25;29.75;;;;;8.24;99.98;102479.31;5100323;27;45451;-81
2023/01/28 09:48:34;;;;;;;;;32.25;32.00;;;;;8.18;99.73;102478.84;5088969;27;46401;-80
2023/01/28 09:51:00;;;;;;;;;44.50;35.25;;;;;8.05;99.75;102451.59;5099901;27;45361;-80
2023/01/28 09:53:35;;;;;;;;;42.75;35.50;;;;;8.22;99.82;102476.78;5099802;27;45326;-80
2023/01/28 09:56:04;;;;;;;;;45.25;37.25;;;;;8.28;99.80;102481.63;5098542;27;46390;-81
2023/01/28 09:58:30;;;;;;;;;26.25;25.25;;;;;8.32;99.80;102479.59;5098349;27;47586;-80
2023/01/28 10:01:11;;;;;;;;;42.00;37.00;;;;;8.46;98.49;102478.53;5099819;27;45361;-81
2023/01/28 10:03:48;;;;;;;;;45.00;38.50;;;;;8.42;99.19;102479.72;5088630;27;45278;-82
2023/01/28 10:06:23;;;;;;;;;40.75;35.25;;;;;8.37;99.26;102485.38;5098539;27;47382;-81
2023/01/28 10:08:57;;;;;;;;;39.00;33.75;;;;;8.50;99.17;102479.16;5099665;27;46326;-82
2023/01/28 10:11:44;;;;;;;;;29.75;26.00;;;;;8.50;98.60;102477.31;5099852;27;45232;-81
2023/01/28 10:14:44;;;;;;;;;37.25;32.75;;;;;8.58;98.32;102488.22;5099736;27;45475;-82
2023/01/28 10:17:17;;;;;;;;;49.75;40.00;;;;;8.67;97.59;102483.16;5098322;27;47675;-82
2023/01/28 10:19:55;;;;;;;;;29.00;27.00;;;;;8.66;97.61;102489.44;5099647;27;45516;-81
2023/01/28 10:22:30;;;;;;;;;30.00;24.67;;;;;8.78;96.66;102487.66;5099081;27;45246;-81
2023/01/28 10:25:05;;;;;;;;;32.25;31.25;;;;;8.93;96.94;102481.16;5099854;27;45714;-81
2023/01/28 10:27:32;;;;;;;;;32.00;27.75;;;;;8.82;97.12;102489.94;5099546;27;45615;-81
2023/01/28 10:30:08;;;;;;;;;29.67;25.67;;;;;8.85;96.45;102483.56;5099506;27;45503;-81
2023/01/28 10:32:42;;;;;;;;;27.00;25.33;;;;;8.88;96.52;102491.28;5095025;27;45328;-80
2023/01/28 10:35:07;;;;;;;;;34.00;27.67;;;;;8.83;95.05;102486.31;5094285;27;45279;-81
2023/01/28 10:37:36;;;;;;;;;20.50;18.75;;;;;8.91;94.82;102496.34;5095042;27;45287;-80
2023/01/28 10:40:03;;;;;;;;;35.67;28.00;;;;;8.84;94.40;102497.78;5096997;27;47567;-80
2023/01/28 10:42:31;;;;;;;;;33.67;28.33;;;;;8.86;94.28;102492.38;5101543;27;45298;-81
2023/01/28 10:45:17;;;;;;;;;27.67;25.33;;;;;8.90;93.73;102494.66;5102946;27;45376;-81
2023/01/28 10:47:51;;;;;;;;;28.00;23.67;;;;;8.94;94.36;102512.00;5103101;27;45342;-82
2023/01/28 10:50:22;;;;;;;;;27.00;24.33;;;;;8.96;93.50;102506.59;5102725;27;46178;-81
2023/01/28 10:52:58;;;;;;;;;32.00;27.67;;;;;9.01;93.71;102504.41;5098113;27;45507;-81
2023/01/28 10:55:29;;;;;;;;;32.00;30.33;;;;;9.36;92.63;102501.75;5090829;27;45452;-81
2023/01/28 10:57:55;;;;;;;;;26.00;23.33;;;;;9.40;90.84;102506.66;5102536;27;45367;-81
2023/01/28 11:00:29;;;;;;;;;32.33;24.67;;;;;9.02;91.76;102500.81;5102953;27;45943;-82
2023/01/28 11:02:56;;;;;;;;;27.67;25.00;;;;;8.98;91.55;102488.72;5102843;27;45311;-81
2023/01/28 11:05:27;;;;;;;;;24.67;21.00;;;;;8.94;92.13;102503.19;5098485;27;45301;-80
2023/01/28 11:08:16;;;;;;;;;24.00;20.33;;;;;8.81;92.04;102501.53;5096043;27;46170;-81
2023/01/28 11:10:42;;;;;;;;;18.00;18.00;;;;;8.74;92.42;102496.81;5094898;27;45332;-85
2023/01/28 11:13:25;;;;;;;;;23.00;22.67;;;;;8.67;92.06;102493.78;5102034;27;45308;-80
2023/01/28 11:15:52;;;;;;;;;19.00;18.67;;;;;8.64;92.12;102491.34;5097441;27;45349;-82
2023/01/28 11:18:20;;;;;;;;;21.00;17.67;;;;;8.59;92.88;102491.72;5092206;27;45420;-79
2023/01/28 11:21:02;;;;;;;;;29.00;27.67;;;;;8.64;92.67;102500.16;5084099;27;47212;-78
2023/01/28 11:23:33;;;;;;;;;30.33;26.00;;;;;8.71;93.09;102487.28;5092827;27;45412;-79
2023/01/28 11:26:04;;;;;;;;;20.67;19.67;;;;;8.73;93.05;102487.16;5089547;27;45334;-81
2023/01/28 11:28:30;;;;;;;;;31.33;27.33;;;;;8.71;92.06;102472.22;5100733;27;46970;-79
2023/01/28 11:30:59;;;;;;;;;19.67;17.67;;;;;8.70;92.06;102474.97;5102670;27;46611;-80
2023/01/28 11:33:38;;;;;;;;;32.25;28.25;;;;;8.75;91.84;102477.28;5102092;27;45463;-81
2023/01/28 11:36:07;;;;;;;;;25.00;24.33;;;;;8.82;91.67;102473.19;5102399;27;45356;-81
2023/01/28 11:38:33;;;;;;;;;21.67;19.00;;;;;8.79;91.61;102465.47;5088383;27;45267;-81
2023/01/28 11:41:02;;;;;;;;;29.33;27.67;;;;;8.84;91.93;102465.97;5101061;27;48334;-83
2023/01/28 11:43:29;;;;;;;;;23.33;19.33;;;;;8.98;91.77;102472.00;5102033;27;45398;-79
2023/01/28 11:46:07;;;;;;;;;24.33;22.00;;;;;9.03;91.23;102477.75;5102127;27;45294;-80
2023/01/28 11:49:04;;;;;;;;;20.67;18.33;;;;;9.01;90.90;102467.28;5101884;27;45297;-80